Time;durP1;ratioP1;P1;durP2;ratioP2;P2;SDS_P1;SDS_P2;PMS_P1;PMS_P2;Temp;Humidity;BMP_temperature;BMP_pressure;BME280_temperature;BME280_humidity;BME280_pressure;Samples;Min_cycle;Max_cycle;Signal;HPM_P1;HPM_P2
2022/04/06 00:01:18;;;;;;;5.50;5.00;;;;;;;10.32;85.60;99261.72;10243091;28;20061;-63
2022/04/06 00:06:19;;;;;;;4.93;4.47;;;;;;;10.48;85.73;99288.56;10237427;28;20062;-64
2022/04/06 00:11:40;;;;;;;5.32;4.70;;;;;;;10.50;85.84;99283.94;10243856;28;20051;-64
2022/04/06 00:16:43;;;;;;;4.63;4.22;;;;;;;10.35;87.07;99256.16;10244079;28;20089;-62
2022/04/06 00:21:45;;;;;;;4.55;4.13;;;;;;;10.43;87.24;99265.06;10243869;28;20125;-64
2022/04/06 00:26:46;;;;;;;4.93;4.43;;;;;;;10.33;86.96;99255.41;10237809;28;20062;-65
2022/04/06 00:31:48;;;;;;;4.78;4.28;;;;;;;10.39;86.54;99260.19;10237388;28;20054;-65
2022/04/06 00:36:49;;;;;;;4.03;3.72;;;;;;;10.39;86.55;99255.69;10245534;28;20060;-65
2022/04/06 00:41:50;;;;;;;4.50;4.10;;;;;;;10.37;86.67;99251.50;10234943;28;20098;-64
2022/04/06 00:46:52;;;;;;;4.43;4.03;;;;;;;10.33;86.73;99255.41;10238259;28;20119;-64
2022/04/06 00:51:54;;;;;;;6.10;5.03;;;;;;;10.21;87.52;99231.66;10240864;28;20057;-64
2022/04/06 00:56:56;;;;;;;5.28;4.78;;;;;;;10.22;87.58;99232.50;10238486;28;20054;-65
2022/04/06 01:01:58;;;;;;;7.00;6.00;;;;;;;10.22;88.12;99220.06;10237057;28;20142;-65
2022/04/06 01:07:00;;;;;;;6.65;5.95;;;;;;;10.29;88.42;99222.13;10236011;28;20053;-64
2022/04/06 01:12:03;;;;;;;8.45;6.30;;;;;;;10.17;89.36;99214.31;10234884;28;20137;-64
2022/04/06 01:17:09;;;;;;;6.93;6.22;;;;;;;10.31;89.41;99225.47;10232048;28;20047;-64
2022/04/06 01:22:15;;;;;;;6.70;6.00;;;;;;;10.25;89.16;99208.25;10239587;28;20078;-63
2022/04/06 01:27:17;;;;;;;6.45;5.85;;;;;;;10.23;89.79;99208.41;10235314;28;20506;-66
2022/04/06 01:32:21;;;;;;;6.75;6.15;;;;;;;10.29;89.46;99216.81;10234279;28;20142;-65
2022/04/06 01:37:22;;;;;;;7.63;6.93;;;;;;;10.32;89.21;99211.19;10235660;28;20105;-65
2022/04/06 01:42:24;;;;;;;7.28;6.57;;;;;;;10.30;88.85;99202.50;10231878;28;20047;-65
2022/04/06 01:47:25;;;;;;;6.78;6.18;;;;;;;10.37;88.23;99208.94;10232075;28;20043;-63
2022/04/06 01:52:27;;;;;;;6.80;6.03;;;;;;;10.43;87.96;99219.00;10235404;28;21290;-63
2022/04/06 01:57:30;;;;;;;7.53;6.82;;;;;;;10.32;88.52;99200.56;10231401;28;20144;-66
2022/04/06 02:02:32;;;;;;;7.80;6.97;;;;;;;10.27;88.37;99193.00;10236553;28;20149;-63
2022/04/06 02:07:33;;;;;;;8.68;7.80;;;;;;;10.32;88.69;99189.91;10237460;28;20050;-64
2022/04/06 02:12:35;;;;;;;8.02;7.22;;;;;;;10.19;89.05;99183.13;10234706;28;20078;-63
2022/04/06 02:17:37;;;;;;;8.68;7.85;;;;;;;10.10;88.70;99144.09;10232536;28;20051;-63
2022/04/06 02:22:38;;;;;;;7.53;6.82;;;;;;;10.27;88.26;99180.53;10234779;28;20051;-64
2022/04/06 02:27:48;;;;;;;7.85;7.15;;;;;;;10.35;88.16;99185.16;10243391;28;20517;-63
2022/04/06 02:32:49;;;;;;;8.10;7.30;;;;;;;10.33;88.41;99175.59;10232381;28;20135;-63
2022/04/06 02:37:51;;;;;;;7.78;6.97;;;;;;;10.26;88.02;99170.88;10229726;28;20054;-64
2022/04/06 02:42:53;;;;;;;7.78;7.07;;;;;;;10.33;88.09;99176.50;10232059;28;20170;-63
2022/04/06 02:47:54;;;;;;;7.65;6.95;;;;;;;10.28;87.99;99173.38;10230663;28;20194;-63
2022/04/06 02:52:55;;;;;;;8.40;7.60;;;;;;;10.22;88.22;99174.84;10232952;28;20138;-63
2022/04/06 02:57:57;;;;;;;8.73;7.82;;;;;;;10.22;87.92;99164.22;10234179;28;20043;-63
2022/04/06 03:02:59;;;;;;;9.02;8.23;;;;;;;10.36;87.23;99186.00;10234129;28;20055;-63
2022/04/06 03:08:00;;;;;;;10.15;9.15;;;;;;;10.44;86.31;99186.09;10236681;28;20054;-63
2022/04/06 03:13:01;;;;;;;11.15;10.07;;;;;;;10.51;85.22;99176.53;10231892;28;20506;-63
2022/04/06 03:18:03;;;;;;;10.13;9.13;;;;;;;10.42;85.03;99169.44;10234128;28;20069;-65
2022/04/06 03:23:05;;;;;;;10.60;8.15;;;;;;;10.42;84.59;99175.59;10247123;28;20059;-65
2022/04/06 03:28:06;;;;;;;9.35;8.45;;;;;;;10.38;84.69;99163.56;10231454;28;20053;-65
2022/04/06 03:33:09;;;;;;;9.05;7.53;;;;;;;10.30;84.66;99166.13;10231460;28;20125;-63
2022/04/06 03:38:10;;;;;;;7.78;7.05;;;;;;;10.36;84.56;99164.72;10230850;28;20051;-63
2022/04/06 03:43:14;;;;;;;7.68;6.95;;;;;;;10.44;84.02;99178.09;10232828;28;20051;-63
2022/04/06 03:48:16;;;;;;;8.38;7.45;;;;;;;10.52;82.76;99164.06;10235175;28;20055;-67
2022/04/06 03:53:18;;;;;;;7.50;6.68;;;;;;;10.43;81.75;99160.47;10231407;28;20057;-63
2022/04/06 03:58:19;;;;;;;7.75;7.00;;;;;;;10.49;81.58;99167.84;10230228;28;20178;-64
2022/04/06 04:03:21;;;;;;;8.75;7.30;;;;;;;10.42;80.62;99153.50;10231003;28;20054;-65
2022/04/06 04:08:23;;;;;;;7.63;6.18;;;;;;;10.55;79.13;99163.75;10234176;28;20043;-63
2022/04/06 04:13:24;;;;;;;5.93;4.10;;;;;;;10.46;73.16;99154.00;10238410;28;20061;-64
2022/04/06 04:18:27;;;;;;;6.72;3.53;;;;;;;10.30;69.81;99168.78;10242066;28;20047;-64
2022/04/06 04:23:28;;;;;;;7.05;3.85;;;;;;;10.32;67.89;99173.94;10239078;28;20050;-64
2022/04/06 04:28:29;;;;;;;5.47;2.88;;;;;;;10.23;66.10;99157.88;10238512;28;20057;-67
2022/04/06 04:33:31;;;;;;;4.22;2.83;;;;;;;10.36;66.16;99172.72;10253501;28;20047;-64
2022/04/06 04:38:33;;;;;;;6.78;3.13;;;;;;;10.36;64.26;99173.53;10236090;28;20055;-64
2022/04/06 04:43:37;;;;;;;8.32;3.53;;;;;;;10.32;63.11;99163.31;10241419;28;20592;-64
2022/04/06 04:48:39;;;;;;;7.05;3.00;;;;;;;10.20;62.71;99160.00;10236096;28;20502;-63
2022/04/06 04:53:41;;;;;;;5.47;2.50;;;;;;;10.31;62.28;99183.72;10236925;28;20130;-63
2022/04/06 04:58:43;;;;;;;4.28;2.83;;;;;;;10.37;62.04;99182.34;10207408;28;20481;-64
2022/04/06 05:03:44;;;;;;;3.80;2.42;;;;;;;10.33;61.92;99146.34;10206968;28;20941;-63
2022/04/06 05:08:46;;;;;;;5.03;2.70;;;;;;;10.33;61.31;99162.31;10217726;28;20051;-64
2022/04/06 05:13:47;;;;;;;7.45;3.10;;;;;;;10.18;62.39;99152.19;10216013;28;20628;-63
2022/04/06 05:18:48;;;;;;;8.73;3.00;;;;;;;10.22;62.22;99155.38;10211747;28;20422;-63
2022/04/06 05:23:50;;;;;;;8.07;3.10;;;;;;;10.38;62.27;99168.88;10216644;28;20235;-64
2022/04/06 05:28:51;;;;;;;5.93;3.10;;;;;;;10.31;61.64;99161.63;10218001;28;20609;-65
2022/04/06 05:33:53;;;;;;;6.60;2.85;;;;;;;10.41;62.07;99173.09;10215902;28;20082;-63
2022/04/06 05:38:56;;;;;;;6.28;3.10;;;;;;;10.42;62.68;99158.81;10217887;28;20142;-63
2022/04/06 05:43:57;;;;;;;4.55;3.50;;;;;;;10.58;62.72;99155.47;10215246;28;20051;-63
2022/04/06 05:48:59;;;;;;;6.32;3.13;;;;;;;10.63;62.50;99166.50;10209191;28;20058;-63
2022/04/06 05:54:02;;;;;;;7.93;3.20;;;;;;;10.64;62.45;99159.34;10219680;28;20057;-62
2022/04/06 05:59:03;;;;;;;6.10;2.85;;;;;;;10.53;62.63;99150.59;10211479;28;20057;-62
2022/04/06 06:04:04;;;;;;;6.47;3.25;;;;;;;10.68;62.59;99169.56;10225716;28;20202;-63
2022/04/06 06:09:06;;;;;;;8.85;3.83;;;;;;;10.72;62.78;99165.59;10218771;28;20058;-62
2022/04/06 06:14:08;;;;;;;5.90;3.58;;;;;;;10.91;62.84;99139.81;10214055;28;20085;-64
2022/04/06 06:19:09;;;;;;;4.47;3.42;;;;;;;10.98;60.81;99148.88;10207987;28;20047;-61
2022/04/06 06:24:11;;;;;;;5.60;2.97;;;;;;;11.07;61.71;99149.78;10212685;28;20062;-61
2022/04/06 06:29:12;;;;;;;7.50;4.22;;;;;;;11.07;61.12;99158.59;10210409;28;20047;-60
2022/04/06 06:34:14;;;;;;;7.45;3.45;;;;;;;11.03;60.63;99151.06;10207000;28;20687;-61
2022/04/06 06:39:15;;;;;;;6.65;4.10;;;;;;;11.11;60.72;99153.81;10211068;28;20059;-61
2022/04/06 06:44:17;;;;;;;8.82;3.72;;;;;;;11.06;60.84;99137.44;10210508;28;20046;-61
2022/04/06 06:49:19;;;;;;;6.80;3.25;;;;;;;11.11;59.71;99151.97;10212317;28;20055;-61
2022/04/06 06:54:20;;;;;;;8.13;3.60;;;;;;;11.05;60.25;99162.41;10210067;28;20066;-60
2022/04/06 06:59:21;;;;;;;7.13;3.30;;;;;;;11.16;59.52;99156.84;10213938;28;20060;-60
2022/04/06 07:04:23;;;;;;;7.55;3.90;;;;;;;11.25;58.22;99161.25;10213564;28;20077;-61
2022/04/06 07:09:24;;;;;;;4.88;3.10;;;;;;;11.45;58.51;99145.06;10209441;28;20050;-61
2022/04/06 07:14:26;;;;;;;7.85;3.38;;;;;;;11.68;57.35;99156.88;10213610;28;20055;-60
2022/04/06 07:19:28;;;;;;;6.13;3.20;;;;;;;11.72;57.04;99151.22;10212055;28;20519;-60
2022/04/06 07:24:29;;;;;;;5.93;3.20;;;;;;;11.48;57.46;99128.75;10213583;28;20090;-62
2022/04/06 07:29:31;;;;;;;4.72;2.88;;;;;;;11.59;56.36;99130.31;10209857;28;20051;-61
2022/04/06 07:34:32;;;;;;;8.20;2.33;;;;;;;11.75;55.53;99124.25;10209635;28;20161;-61
2022/04/06 07:39:33;;;;;;;6.63;3.20;;;;;;;12.22;54.15;99142.50;10210708;28;20477;-62
2022/04/06 07:44:35;;;;;;;4.20;2.70;;;;;;;12.53;51.55;99128.56;10209465;28;20054;-61
2022/04/06 07:49:36;;;;;;;5.47;2.63;;;;;;;12.51;51.16;99109.22;10219937;28;20179;-62
2022/04/06 07:54:37;;;;;;;6.05;3.85;;;;;;;12.64;51.28;99106.91;10218630;28;20051;-63
2022/04/06 07:59:39;;;;;;;5.10;2.70;;;;;;;12.40;52.02;99126.38;10211474;28;20063;-60
2022/04/06 08:04:40;;;;;;;6.85;2.95;;;;;;;12.19;51.59;99121.50;10217731;28;20047;-60
2022/04/06 08:09:42;;;;;;;5.95;2.55;;;;;;;12.05;52.20;99120.25;10219100;28;20051;-61
2022/04/06 08:14:43;;;;;;;5.25;2.92;;;;;;;11.87;52.26;99106.97;10215933;28;20051;-60
2022/04/06 08:19:44;;;;;;;4.82;2.53;;;;;;;12.12;51.93;99109.78;10219219;28;20104;-60
2022/04/06 08:24:46;;;;;;;6.22;2.70;;;;;;;12.21;50.73;99114.16;10218505;28;20520;-61
2022/04/06 08:29:47;;;;;;;4.30;2.65;;;;;;;12.12;50.90;99115.94;10215258;28;20057;-61
2022/04/06 08:34:49;;;;;;;6.97;3.03;;;;;;;12.41;49.76;99109.34;10218710;28;20267;-63
2022/04/06 08:39:50;;;;;;;5.68;3.15;;;;;;;12.80;49.02;99114.09;10216115;28;20460;-61
2022/04/06 08:45:08;;;;;;;6.68;2.65;;;;;;;13.06;48.80;99113.94;10217098;28;20093;-62
2022/04/06 08:50:10;;;;;;;6.10;2.90;;;;;;;13.58;48.35;99101.19;10214334;28;20058;-62
2022/04/06 08:55:12;;;;;;;4.78;2.55;;;;;;;14.05;47.99;99097.69;10213962;28;20063;-68
2022/04/06 09:00:16;;;;;;;6.40;2.75;;;;;;;14.62;46.44;99098.41;10210707;28;20085;-63
2022/04/06 09:05:23;;;;;;;4.35;3.08;;;;;;;14.26;46.16;99093.56;10213750;28;20545;-62
2022/04/06 09:10:33;;;;;;;5.80;3.45;;;;;;;14.52;45.51;99092.41;10209299;28;20046;-62
2022/04/06 09:15:34;;;;;;;15.48;10.15;;;;;;;14.91;44.42;99083.47;10213495;28;20051;-62
2022/04/06 09:20:36;;;;;;;4.68;2.55;;;;;;;15.35;43.29;99074.69;10215235;28;20081;-63
2022/04/06 09:25:39;;;;;;;3.97;2.85;;;;;;;15.12;43.98;99072.06;10215807;28;20054;-63
2022/04/06 09:30:43;;;;;;;8.30;3.25;;;;;;;14.53;45.30;99088.72;10215583;28;20051;-63
2022/04/06 09:35:45;;;;;;;4.72;3.17;;;;;;;14.14;45.34;99069.03;10215854;28;20059;-61
2022/04/06 09:40:46;;;;;;;6.93;3.13;;;;;;;13.75;46.79;99084.09;10216986;28;20506;-61
2022/04/06 09:51:09;;;;;;;5.43;2.80;;;;;;;14.83;42.79;99068.28;10217797;28;20125;-62
2022/04/06 09:56:11;;;;;;;5.45;2.30;;;;;;;14.77;42.17;99061.81;10230939;28;20043;-62
2022/04/06 10:01:14;;;;;;;2.85;2.05;;;;;;;14.79;43.23;99067.81;10211268;28;20098;-68
2022/04/06 10:06:16;;;;;;;3.95;2.22;;;;;;;14.72;42.96;99064.19;10213700;28;20573;-64
2022/04/06 10:11:21;;;;;;;5.93;2.45;;;;;;;14.37;43.28;99052.22;10208467;28;20051;-62
2022/04/06 10:16:26;;;;;;;3.88;2.35;;;;;;;13.81;45.16;99063.00;10209886;28;20754;-62
2022/04/06 10:21:30;;;;;;;5.35;2.42;;;;;;;13.86;45.17;99044.63;10209396;28;20510;-65
2022/04/06 10:26:39;;;;;;;5.75;3.03;;;;;;;14.04;45.54;99047.88;10203706;28;20145;-65
2022/04/06 10:31:41;;;;;;;5.50;3.30;;;;;;;14.00;45.71;99024.31;10210870;28;20047;-63
2022/04/06 10:36:44;;;;;;;4.97;3.45;;;;;;;14.09;45.94;99010.69;10206641;28;20055;-61
2022/04/06 10:42:13;;;;;;;5.20;3.35;;;;;;;14.00;46.55;99019.78;10212292;28;20638;-61
2022/04/06 10:47:14;;;;;;;6.18;3.25;;;;;;;14.03;47.16;98992.69;10211999;28;20089;-62
2022/04/06 10:52:17;;;;;;;6.15;4.10;;;;;;;14.89;45.72;98981.81;10210671;28;20062;-62
2022/04/06 10:57:20;;;;;;;7.35;4.20;;;;;;;16.51;41.45;98985.47;10211784;28;20059;-63
2022/04/06 11:02:25;;;;;;;9.52;4.40;;;;;;;15.77;42.88;98989.22;10210956;28;20179;-61
2022/04/06 11:13:08;;;;;;;6.57;3.70;;;;;;;19.74;36.27;98989.66;10216305;28;20055;-63
2022/04/06 11:18:44;;;;;;;5.85;3.80;;;;;;;18.85;36.86;98968.50;10211646;28;20058;-62
2022/04/06 11:23:45;;;;;;;9.07;4.40;;;;;;;22.48;30.17;98960.00;10211888;28;20593;-63
2022/04/06 11:28:58;;;;;;;6.18;4.00;;;;;;;19.87;33.92;98948.31;10210603;28;20524;-61
2022/04/06 11:34:00;;;;;;;6.13;3.95;;;;;;;18.74;37.11;98952.94;10212001;28;20564;-64
2022/04/06 11:39:05;;;;;;;4.57;3.70;;;;;;;23.89;28.69;98971.03;10213002;28;20050;-61
2022/04/06 11:44:07;;;;;;;5.60;3.00;;;;;;;26.55;24.76;98953.25;10221842;28;20129;-64
2022/04/06 11:49:10;;;;;;;5.97;2.88;;;;;;;29.28;22.15;98957.69;10213397;28;20518;-62
2022/04/06 11:54:11;;;;;;;3.67;2.53;;;;;;;29.83;19.78;98927.59;10212374;28;20066;-63
2022/04/06 11:59:16;;;;;;;6.68;3.13;;;;;;;26.87;21.94;98934.13;10214127;28;20055;-61
2022/04/06 12:04:24;;;;;;;5.60;2.42;;;;;;;27.63;21.53;98940.31;10204367;28;20058;-66
2022/04/06 12:09:26;;;;;;;4.65;2.30;;;;;;;27.03;22.41;98915.94;10211139;28;20437;-61
2022/04/06 12:14:27;;;;;;;6.50;3.05;;;;;;;25.75;25.09;98940.19;10210574;28;20214;-62
2022/04/06 12:19:33;;;;;;;5.57;3.08;;;;;;;20.61;31.19;98929.69;10211371;28;20061;-61
2022/04/06 12:24:36;;;;;;;5.32;2.63;;;;;;;28.45;20.56;98918.59;10211985;28;20172;-62
2022/04/06 12:29:39;;;;;;;4.13;2.50;;;;;;;26.83;21.92;98905.75;10213286;28;20533;-62
2022/04/06 12:34:40;;;;;;;3.75;2.28;;;;;;;26.97;22.01;98927.94;10217888;28;20079;-62
2022/04/06 12:39:54;;;;;;;4.63;1.95;;;;;;;30.50;18.17;98910.66;10222085;28;20811;-63
2022/04/06 12:45:03;;;;;;;4.82;1.67;;;;;;;30.82;17.31;98906.50;10224290;28;20062;-65
2022/04/06 12:50:17;;;;;;;4.25;1.17;;;;;;;30.55;17.91;98899.66;10220138;28;20047;-63
2022/04/06 12:55:19;;;;;;;3.78;1.02;;;;;;;25.81;21.08;98886.56;10220727;28;20249;-61
2022/04/06 13:00:24;;;;;;;2.40;1.23;;;;;;;22.66;25.43;98885.03;10219412;28;20075;-64
2022/04/06 13:05:26;;;;;;;3.30;0.88;;;;;;;21.91;26.53;98894.56;10216277;28;20618;-62
2022/04/06 13:10:27;;;;;;;;;;;;;;;20.99;28.03;98902.53;10220425;28;20513;-62
2022/04/06 13:15:30;;;;;;;2.33;0.73;;;;;;;20.89;28.71;98890.59;10215085;28;19922;-61
2022/04/06 13:20:31;;;;;;;1.90;0.70;;;;;;;20.83;28.91;98890.41;10216800;28;20065;-60
2022/04/06 13:25:34;;;;;;;4.18;1.40;;;;;;;19.57;29.96;98867.84;10220540;28;20082;-61
2022/04/06 13:30:35;;;;;;;5.90;1.65;;;;;;;19.21;30.71;98850.38;10215938;28;20055;-61
2022/04/06 13:35:36;;;;;;;1.67;0.68;;;;;;;18.94;30.93;98820.81;10219643;28;20055;-64
2022/04/06 13:40:38;;;;;;;3.55;0.70;;;;;;;19.43;31.17;98823.94;10218916;28;20070;-61
2022/04/06 13:45:39;;;;;;;3.03;0.98;;;;;;;19.57;30.00;98832.78;10218163;28;20059;-61
2022/04/06 13:50:41;;;;;;;2.47;1.83;;;;;;;18.36;32.24;98832.34;10226494;28;20066;-67
2022/04/06 13:55:42;;;;;;;3.53;1.25;;;;;;;17.95;32.91;98828.81;10220548;28;20062;-62
2022/04/06 14:00:43;;;;;;;3.47;1.05;;;;;;;17.76;33.18;98808.06;10215752;28;20536;-62
2022/04/06 14:05:45;;;;;;;4.20;1.15;;;;;;;17.77;33.64;98801.66;10222081;28;20142;-61
2022/04/06 14:10:46;;;;;;;3.58;1.10;;;;;;;18.41;32.34;98791.31;10220835;28;20062;-60
2022/04/06 14:15:48;;;;;;;2.25;1.08;;;;;;;17.84;33.77;98799.78;10214398;28;20047;-61
2022/04/06 14:20:50;;;;;;;3.00;1.27;;;;;;;17.44;34.48;98807.78;10212314;28;21990;-61
2022/04/06 14:25:51;;;;;;;1.42;1.05;;;;;;;17.19;35.05;98794.06;10216874;28;20070;-62
2022/04/06 14:30:54;;;;;;;4.13;1.23;;;;;;;17.22;35.50;98799.03;10206107;28;20051;-61
2022/04/06 14:35:56;;;;;;;2.53;0.80;;;;;;;16.88;36.15;98788.16;10216380;28;20189;-65
2022/04/06 14:40:58;;;;;;;3.25;0.90;;;;;;;17.10;35.96;98777.31;10216120;28;21517;-61
2022/04/06 14:46:00;;;;;;;3.63;1.02;;;;;;;16.81;36.71;98781.09;10227775;28;20120;-61
2022/04/06 14:51:02;;;;;;;2.88;0.63;;;;;;;16.15;37.74;98775.13;10227341;28;20070;-62
2022/04/06 14:56:05;;;;;;;3.38;0.38;;;;;;;15.79;39.18;98751.94;10218323;28;20678;-62
2022/04/06 15:01:07;;;;;;;5.18;1.27;;;;;;;15.40;39.70;98739.78;10213878;28;20063;-61
2022/04/06 15:06:08;;;;;;;2.47;0.70;;;;;;;15.22;40.34;98758.19;10210802;28;20075;-62
2022/04/06 15:11:10;;;;;;;2.47;0.70;;;;;;;14.95;40.09;98717.69;10212488;28;20141;-61
2022/04/06 15:16:11;;;;;;;2.67;0.75;;;;;;;14.99;41.11;98740.41;10215724;28;20058;-62
2022/04/06 15:21:13;;;;;;;3.17;0.70;;;;;;;14.81;42.04;98749.69;10215509;28;20050;-62
2022/04/06 15:26:20;;;;;;;2.33;0.68;;;;;;;14.47;42.54;98734.19;10213705;28;20897;-62
2022/04/06 15:31:21;;;;;;;3.53;0.85;;;;;;;14.26;43.39;98761.69;10217394;28;20051;-62
2022/04/06 15:41:43;;;;;;;1.75;1.08;;;;;;;14.02;44.22;98755.59;10214311;28;20709;-61
2022/04/06 15:46:44;;;;;;;2.55;0.93;;;;;;;13.86;44.95;98739.72;10214728;28;20046;-63
2022/04/06 15:51:46;;;;;;;1.77;0.90;;;;;;;14.04;44.52;98750.88;10211677;28;20055;-62
2022/04/06 15:56:47;;;;;;;1.83;1.05;;;;;;;13.97;44.45;98740.06;10212001;28;20047;-60
2022/04/06 16:01:49;;;;;;;2.47;1.05;;;;;;;13.93;44.85;98745.97;10212221;28;20047;-63
2022/04/06 16:06:50;;;;;;;2.35;0.88;;;;;;;13.64;45.58;98736.06;10212854;28;20182;-62
2022/04/06 16:11:59;;;;;;;1.80;0.90;;;;;;;13.60;46.11;98757.81;10204434;28;20066;-61
2022/04/06 16:17:01;;;;;;;2.60;1.50;;;;;;;13.36;47.08;98750.81;10218984;28;20058;-61
2022/04/06 16:22:02;;;;;;;2.80;1.65;;;;;;;13.41;47.69;98764.47;10220060;28;20121;-63
2022/04/06 16:27:04;;;;;;;2.78;1.80;;;;;;;13.29;48.00;98771.19;10220241;28;20055;-63
2022/04/06 16:32:06;;;;;;;3.33;1.35;;;;;;;13.09;48.68;98752.94;10218484;28;20051;-61
2022/04/06 16:37:07;;;;;;;2.65;1.67;;;;;;;12.98;48.98;98739.16;10235140;28;20057;-62
2022/04/06 16:42:09;;;;;;;2.60;1.65;;;;;;;13.02;49.62;98745.81;10220180;28;20581;-61
2022/04/06 16:47:13;;;;;;;4.43;1.88;;;;;;;12.94;49.84;98728.00;10221470;28;20421;-62
2022/04/06 16:57:44;;;;;;;2.88;2.10;;;;;;;12.81;50.37;98719.75;10218120;28;20629;-62
2022/04/06 17:02:48;;;;;;;10.77;6.53;;;;;;;12.78;50.62;98714.75;10219893;28;20109;-64
2022/04/06 17:07:51;;;;;;;38.13;31.77;;;;;;;12.72;50.61;98700.25;10219681;28;20062;-63
2022/04/06 17:12:53;;;;;;;5.20;2.65;;;;;;;12.80;51.21;98710.06;10218518;28;20053;-62
2022/04/06 17:17:59;;;;;;;5.90;2.45;;;;;;;12.99;51.84;98709.59;10218979;28;20522;-62
2022/04/06 17:23:04;;;;;;;3.40;2.75;;;;;;;12.95;50.88;98704.81;10219848;28;20043;-62
2022/04/06 17:28:05;;;;;;;;;;;;;;;12.65;51.23;98678.75;10235435;28;20115;-62
2022/04/06 17:33:06;;;;;;;3.97;2.90;;;;;;;12.67;52.12;98692.78;10219538;28;19953;-61
2022/04/06 17:38:08;;;;;;;4.97;3.20;;;;;;;12.79;51.78;98705.72;10220181;28;20062;-63
2022/04/06 17:43:10;;;;;;;4.00;2.38;;;;;;;12.77;51.87;98697.06;10220956;28;20054;-63
2022/04/06 17:48:12;;;;;;;4.22;2.55;;;;;;;12.56;51.84;98669.13;10221349;28;20850;-63
2022/04/06 17:53:13;;;;;;;3.50;2.67;;;;;;;12.64;52.02;98690.47;10221244;28;20061;-61
2022/04/06 17:58:15;;;;;;;4.25;3.10;;;;;;;12.47;52.55;98665.66;10218378;28;20605;-62
2022/04/06 18:03:16;;;;;;;4.15;2.70;;;;;;;12.56;52.91;98674.47;10210730;28;20050;-61
2022/04/06 18:08:18;;;;;;;4.35;2.88;;;;;;;12.49;52.73;98663.69;10213047;28;20382;-61
2022/04/06 18:18:42;;;;;;;6.07;3.35;;;;;;;12.58;53.13;98666.28;10223033;28;20051;-61
2022/04/06 18:23:43;;;;;;;5.60;3.57;;;;;;;12.62;53.09;98668.44;10222808;28;20062;-62
2022/04/06 18:28:47;;;;;;;2.78;2.30;;;;;;;12.60;53.32;98664.28;10221741;28;20137;-61
2022/04/06 18:33:49;;;;;;;3.40;3.10;;;;;;;12.57;53.33;98670.81;10206332;28;20055;-61
2022/04/06 18:38:50;;;;;;;5.38;3.20;;;;;;;12.57;53.20;98667.31;10206914;28;20793;-61
2022/04/06 18:43:52;;;;;;;4.25;2.40;;;;;;;12.61;53.31;98661.44;10206540;28;20055;-62
2022/04/06 18:48:54;;;;;;;4.10;2.88;;;;;;;12.50;53.31;98641.31;10216407;28;20061;-61
2022/04/06 18:53:55;;;;;;;2.90;2.35;;;;;;;12.51;53.08;98645.66;10215238;28;20075;-62
2022/04/06 18:58:59;;;;;;;6.57;5.05;;;;;;;12.49;53.60;98637.00;10216177;28;20418;-62
2022/04/06 19:04:00;;;;;;;5.75;3.28;;;;;;;12.47;53.62;98635.50;10214105;28;20071;-64
2022/04/06 19:09:07;;;;;;;15.13;6.68;;;;;;;12.52;53.73;98651.81;10216248;28;20050;-62
2022/04/06 19:14:09;;;;;;;8.40;4.28;;;;;;;12.47;54.31;98638.16;10214072;28;20058;-62
2022/04/06 19:19:11;;;;;;;2.95;2.42;;;;;;;12.45;54.62;98646.34;10217800;28;20084;-61
2022/04/06 19:24:13;;;;;;;3.55;2.30;;;;;;;12.43;55.25;98644.84;10217149;28;20073;-62
2022/04/06 19:29:15;;;;;;;3.35;2.38;;;;;;;12.30;55.32;98621.41;10232989;28;20054;-64
2022/04/06 19:34:16;;;;;;;5.18;1.85;;;;;;;12.27;55.84;98619.91;10217259;28;21018;-62
2022/04/06 19:39:18;;;;;;;4.05;2.20;;;;;;;12.29;56.27;98628.56;10211683;28;20054;-62
2022/04/06 19:44:19;;;;;;;3.80;2.35;;;;;;;12.25;56.69;98629.94;10218840;28;20047;-61
2022/04/06 19:49:21;;;;;;;4.53;2.47;;;;;;;12.12;56.80;98619.00;10221692;28;20087;-66
2022/04/06 19:54:23;;;;;;;3.53;2.08;;;;;;;12.26;57.01;98620.91;10224554;28;20633;-62
2022/04/06 19:59:24;;;;;;;3.10;2.45;;;;;;;12.26;57.41;98615.59;10220520;28;20058;-63
2022/04/06 20:04:26;;;;;;;2.67;2.30;;;;;;;12.22;57.55;98608.09;10224487;28;20539;-62
2022/04/06 20:09:28;;;;;;;3.65;2.20;;;;;;;12.19;57.95;98614.63;10221733;28;20150;-62
2022/04/06 20:14:29;;;;;;;4.03;2.35;;;;;;;12.06;58.28;98612.50;10219998;28;20608;-62
2022/04/06 20:19:31;;;;;;;5.43;2.65;;;;;;;11.96;60.07;98594.03;10219829;28;20057;-62
2022/04/06 20:24:32;;;;;;;4.63;3.45;;;;;;;11.91;61.05;98590.22;10220835;28;20169;-62
2022/04/06 20:29:33;;;;;;;4.47;2.92;;;;;;;11.78;61.08;98577.44;10218229;28;20740;-61
2022/04/06 20:34:35;;;;;;;4.57;2.50;;;;;;;11.89;61.44;98603.72;10222610;28;20062;-62
2022/04/06 20:39:37;;;;;;;4.07;2.90;;;;;;;11.90;61.54;98600.03;10226390;28;20108;-62
2022/04/06 20:44:43;;;;;;;2.92;2.20;;;;;;;11.92;61.68;98603.38;10220692;28;20051;-61
2022/04/06 20:49:44;;;;;;;4.20;2.92;;;;;;;11.83;62.06;98589.25;10219101;28;20050;-63
2022/04/06 20:54:46;;;;;;;3.80;2.30;;;;;;;11.89;62.18;98610.88;10223297;28;20055;-64
2022/04/06 20:59:47;;;;;;;4.60;2.88;;;;;;;11.76;63.38;98582.94;10221913;28;20063;-62
2022/04/06 21:04:48;;;;;;;3.45;3.00;;;;;;;11.79;64.18;98571.09;10226387;28;20068;-62
2022/04/06 21:09:50;;;;;;;5.03;3.05;;;;;;;11.68;64.76;98570.47;10213863;28;20055;-62
2022/04/06 21:14:51;;;;;;;4.70;2.85;;;;;;;11.62;66.47;98576.50;10218075;28;20059;-62
2022/04/06 21:19:54;;;;;;;4.55;3.00;;;;;;;11.48;67.55;98562.06;10236145;28;20749;-62
2022/04/06 21:24:55;;;;;;;3.78;2.45;;;;;;;11.62;67.61;98555.16;10215175;28;20522;-63
2022/04/06 21:29:57;;;;;;;4.35;2.83;;;;;;;11.54;68.10;98547.19;10215864;28;20134;-63
2022/04/06 21:34:58;;;;;;;4.88;3.20;;;;;;;11.52;68.62;98530.56;10217884;28;20134;-62
2022/04/06 21:40:00;;;;;;;2.80;2.45;;;;;;;11.53;68.26;98521.56;10210243;28;20121;-63
2022/04/06 21:45:02;;;;;;;4.88;2.65;;;;;;;11.64;68.48;98545.16;10226349;28;20413;-62
2022/04/06 21:50:03;;;;;;;3.78;2.75;;;;;;;11.65;68.73;98548.66;10231033;28;20045;-62
2022/04/06 21:55:07;;;;;;;5.47;2.80;;;;;;;11.71;68.39;98552.47;10232565;28;20051;-62
2022/04/06 22:00:12;;;;;;;4.10;2.97;;;;;;;11.66;68.55;98529.84;10247265;28;20275;-63
2022/04/06 22:05:13;;;;;;;5.32;3.05;;;;;;;11.71;68.21;98515.16;10236555;28;20720;-62
2022/04/06 22:10:15;;;;;;;3.35;2.70;;;;;;;11.76;68.56;98512.81;10235972;28;20054;-63
2022/04/06 22:15:17;;;;;;;3.65;2.22;;;;;;;11.63;69.68;98516.88;10234499;28;20414;-63
2022/04/06 22:20:18;;;;;;;3.33;2.50;;;;;;;11.62;70.30;98523.19;10241220;28;20611;-64
2022/04/06 22:25:20;;;;;;;3.50;2.45;;;;;;;11.57;70.85;98514.03;10235921;28;20130;-63
2022/04/06 22:30:22;;;;;;;2.90;2.13;;;;;;;11.49;71.30;98502.41;10230932;28;20126;-61
2022/04/06 22:35:24;;;;;;;4.93;2.30;;;;;;;11.51;71.42;98499.56;10232996;28;20047;-63
2022/04/06 22:40:27;;;;;;;3.53;2.47;;;;;;;11.45;71.97;98500.25;10227681;28;20695;-64
2022/04/06 22:45:28;;;;;;;4.68;2.17;;;;;;;11.31;71.86;98483.97;10230613;28;20771;-65
2022/04/06 22:50:29;;;;;;;4.32;2.72;;;;;;;11.48;72.11;98490.09;10231497;28;20478;-63
2022/04/06 22:55:31;;;;;;;3.75;2.35;;;;;;;11.46;72.26;98488.59;10229341;28;20058;-64
2022/04/06 23:00:33;;;;;;;2.90;2.38;;;;;;;11.37;71.90;98481.66;10229581;28;20451;-65
2022/04/06 23:05:36;;;;;;;2.20;2.00;;;;;;;11.44;71.43;98483.44;10228740;28;20526;-63
2022/04/06 23:10:38;;;;;;;3.80;2.60;;;;;;;11.39;71.65;98469.81;10227641;28;20061;-63
2022/04/06 23:15:40;;;;;;;5.65;2.53;;;;;;;11.35;71.71;98473.00;10233649;28;20047;-61
2022/04/06 23:20:41;;;;;;;2.55;2.35;;;;;;;11.29;71.24;98463.88;10228622;28;20437;-64
2022/04/06 23:25:43;;;;;;;4.18;2.63;;;;;;;11.33;71.02;98454.50;10244862;28;20137;-63
2022/04/06 23:30:45;;;;;;;3.95;2.70;;;;;;;11.16;71.12;98445.75;10230917;28;20506;-63
2022/04/06 23:35:46;;;;;;;3.65;2.65;;;;;;;11.11;70.69;98434.81;10232933;28;20058;-63
2022/04/06 23:40:48;;;;;;;3.08;2.72;;;;;;;11.16;70.27;98451.09;10228350;28;20207;-63
2022/04/06 23:45:49;;;;;;;4.90;3.17;;;;;;;11.18;69.26;98442.91;10246499;28;20062;-63
2022/04/06 23:50:51;;;;;;;3.22;2.67;;;;;;;11.15;69.17;98444.09;10227605;28;20559;-63